Time;durP1;ratioP1;P1;durP2;ratioP2;P2;SDS_P1;SDS_P2;PMS_P1;PMS_P2;Temp;Humidity;BMP_temperature;BMP_pressure;BME280_temperature;BME280_humidity;BME280_pressure;Samples;Min_cycle;Max_cycle;Signal;HPM_P1;HPM_P2
2022/08/14 00:00:32;;;;;;;9.77;7.60;;;;;;;23.92;100.00;100732.88;2057063;28;20578;-65
2022/08/14 00:01:33;;;;;;;9.63;7.30;;;;;;;23.62;100.00;100697.22;2065614;28;20261;-65
2022/08/14 00:02:33;;;;;;;9.00;7.23;;;;;;;23.85;100.00;100732.63;2067064;28;20558;-65
2022/08/14 00:03:34;;;;;;;8.50;7.60;;;;;;;23.63;100.00;100705.19;2071941;28;20260;-64
2022/08/14 00:04:36;;;;;;;8.43;7.60;;;;;;;23.77;100.00;100723.13;2072228;28;20663;-65
2022/08/14 00:05:36;;;;;;;10.10;7.30;;;;;;;23.81;100.00;100729.28;2065221;28;20174;-65
2022/08/14 00:06:37;;;;;;;8.70;7.10;;;;;;;23.81;100.00;100720.78;2072722;28;20276;-65
2022/08/14 00:07:38;;;;;;;9.43;7.30;;;;;;;23.82;100.00;100723.13;2067173;28;20186;-65
2022/08/14 00:08:39;;;;;;;8.23;7.40;;;;;;;23.80;100.00;100722.84;2070840;28;20207;-65
2022/08/14 00:09:39;;;;;;;9.23;7.80;;;;;;;23.81;100.00;100724.41;2069449;28;20182;-65
2022/08/14 00:10:40;;;;;;;9.50;7.63;;;;;;;23.34;100.00;100646.41;2059885;28;20616;-65
2022/08/14 00:11:40;;;;;;;10.03;7.30;;;;;;;23.53;100.00;100678.47;2062896;28;20174;-65
2022/08/14 00:12:46;;;;;;;7.90;7.20;;;;;;;23.69;100.00;100705.16;2066514;28;20183;-65
2022/08/14 00:13:47;;;;;;;8.03;7.10;;;;;;;23.67;100.00;100702.06;2073221;28;20236;-65
2022/08/14 00:14:48;;;;;;;8.27;7.47;;;;;;;23.76;100.00;100713.09;2065674;28;20222;-65
2022/08/14 00:15:50;;;;;;;9.60;7.00;;;;;;;23.75;100.00;100717.97;2065488;28;20664;-64
2022/08/14 00:16:51;;;;;;;8.47;7.63;;;;;;;23.72;100.00;100719.03;2073567;28;20189;-65
2022/08/14 00:17:52;;;;;;;8.13;6.83;;;;;;;23.75;100.00;100720.81;2068061;28;20196;-64
2022/08/14 00:18:53;;;;;;;9.83;7.27;;;;;;;23.77;100.00;100718.25;2069522;28;20197;-65
2022/08/14 00:19:54;;;;;;;8.10;7.30;;;;;;;23.40;100.00;100655.66;2070235;28;20194;-64
2022/08/14 00:20:56;;;;;;;8.10;7.40;;;;;;;23.65;100.00;100699.00;2067962;28;20178;-65
2022/08/14 00:21:57;;;;;;;7.87;7.07;;;;;;;23.80;100.00;100703.03;2071825;28;20264;-65
2022/08/14 00:22:58;;;;;;;8.23;7.47;;;;;;;23.81;100.00;100703.81;2065693;28;20182;-65
2022/08/14 00:23:59;;;;;;;8.77;7.87;;;;;;;23.80;100.00;100705.13;2073832;28;20185;-64
2022/08/14 00:25:00;;;;;;;8.13;7.10;;;;;;;23.79;100.00;100704.34;2065199;28;20269;-65
2022/08/14 00:26:00;;;;;;;8.30;7.60;;;;;;;23.67;100.00;100702.84;2071419;28;20280;-64
2022/08/14 00:27:00;;;;;;;8.60;7.70;;;;;;;23.68;100.00;100703.59;2068007;28;20256;-65
2022/08/14 00:28:02;;;;;;;8.37;7.57;;;;;;;23.22;100.00;100642.06;2067777;28;20241;-64
2022/08/14 00:29:03;;;;;;;8.50;7.70;;;;;;;22.76;100.00;100587.44;2068383;28;20202;-65
2022/08/14 00:30:08;;;;;;;8.57;7.67;;;;;;;23.57;100.00;100698.00;2073637;28;20663;-65
2022/08/14 00:31:09;;;;;;;8.00;7.20;;;;;;;23.41;100.00;100687.50;2073361;28;20174;-65
2022/08/14 00:32:11;;;;;;;10.63;7.80;;;;;;;23.56;100.00;100707.78;2072680;28;20186;-65
2022/08/14 00:33:11;;;;;;;9.53;7.93;;;;;;;23.05;100.00;100627.22;2065737;28;20253;-65
2022/08/14 00:34:12;;;;;;;7.57;6.83;;;;;;;23.01;100.00;100612.56;2073221;28;20186;-65
2022/08/14 00:35:12;;;;;;;8.73;7.27;;;;;;;23.59;100.00;100704.66;2057317;28;20935;-64
2022/08/14 00:36:13;;;;;;;8.17;7.37;;;;;;;23.03;100.00;100629.75;2060919;28;20250;-65
2022/08/14 00:37:14;;;;;;;8.30;7.50;;;;;;;23.58;100.00;100700.31;2067490;28;20236;-65
2022/08/14 00:38:16;;;;;;;8.30;7.60;;;;;;;23.61;100.00;100698.50;2057679;28;20668;-65
2022/08/14 00:39:17;;;;;;;8.20;7.40;;;;;;;23.61;100.00;100704.94;2050755;28;20748;-65
2022/08/14 00:40:18;;;;;;;8.43;7.60;;;;;;;23.17;100.00;100642.84;2056682;28;20182;-65
2022/08/14 00:41:19;;;;;;;8.60;7.80;;;;;;;23.61;100.00;100721.13;2065234;28;20240;-65
2022/08/14 00:42:21;;;;;;;9.33;8.40;;;;;;;23.63;100.00;100710.84;2065440;28;20210;-65
2022/08/14 00:43:22;;;;;;;9.10;7.53;;;;;;;23.62;100.00;100719.84;2057148;28;20191;-65
2022/08/14 00:44:22;;;;;;;9.60;8.20;;;;;;;23.64;100.00;100718.03;2057394;28;20247;-65
2022/08/14 00:45:24;;;;;;;9.43;7.77;;;;;;;23.60;100.00;100716.78;2056813;28;20204;-65
2022/08/14 00:46:24;;;;;;;8.30;7.50;;;;;;;23.13;100.00;100636.66;2061248;28;20560;-65
2022/08/14 00:47:25;;;;;;;10.27;8.27;;;;;;;23.63;100.00;100707.22;2061908;28;20194;-66
2022/08/14 00:48:25;;;;;;;9.33;8.33;;;;;;;23.38;100.00;100685.75;2059780;28;20182;-65
2022/08/14 00:49:27;;;;;;;8.97;8.07;;;;;;;23.70;100.00;100718.03;2065207;28;20635;-64
2022/08/14 00:50:29;;;;;;;9.73;8.40;;;;;;;23.38;100.00;100685.75;2064517;28;20270;-65
2022/08/14 00:51:31;;;;;;;10.20;7.63;;;;;;;23.64;100.00;100720.09;2065375;28;20241;-65
2022/08/14 00:52:32;;;;;;;8.90;8.00;;;;;;;23.74;100.00;100710.03;2065163;28;20210;-65
2022/08/14 00:53:35;;;;;;;9.63;8.47;;;;;;;23.77;100.00;100714.63;2065380;28;20215;-65
2022/08/14 00:54:39;;;;;;;10.87;8.50;;;;;;;23.74;100.00;100716.44;2065370;28;20217;-65
2022/08/14 00:55:41;;;;;;;10.07;8.20;;;;;;;23.76;100.00;100713.88;2059479;28;20536;-65
2022/08/14 00:56:43;;;;;;;10.43;8.23;;;;;;;23.58;100.00;100688.22;2056849;28;20187;-65
2022/08/14 00:57:43;;;;;;;10.07;8.10;;;;;;;23.36;100.00;100651.53;2060500;28;20206;-65
2022/08/14 00:58:45;;;;;;;11.57;7.87;;;;;;;23.77;100.00;100706.16;2062912;28;20178;-65
2022/08/14 00:59:46;;;;;;;8.80;7.90;;;;;;;23.81;100.00;100713.09;2059675;28;20179;-65
2022/08/14 01:00:47;;;;;;;10.17;8.20;;;;;;;23.76;100.00;100705.41;2072212;28;20198;-65
2022/08/14 01:01:48;;;;;;;9.77;8.27;;;;;;;22.90;100.00;100583.56;2057360;28;20657;-65
2022/08/14 01:02:52;;;;;;;8.93;8.00;;;;;;;23.65;100.00;100693.34;2056754;28;20695;-65
2022/08/14 01:03:53;;;;;;;9.80;8.10;;;;;;;23.71;100.00;100697.69;2063532;28;20182;-65
2022/08/14 01:05:06;;;;;;;8.77;7.93;;;;;;;23.81;100.00;100712.31;2058992;28;20195;-64
2022/08/14 01:06:08;;;;;;;9.03;8.20;;;;;;;23.78;100.00;100714.13;2056649;28;20215;-65
2022/08/14 01:07:09;;;;;;;9.13;7.97;;;;;;;23.17;100.00;100617.41;2057092;28;20290;-65
2022/08/14 01:08:10;;;;;;;9.80;8.80;;;;;;;23.77;100.00;100712.59;2057197;28;20195;-65
2022/08/14 01:09:10;;;;;;;9.67;8.63;;;;;;;23.69;100.00;100696.69;2060291;28;20186;-65
2022/08/14 01:10:11;;;;;;;9.37;8.37;;;;;;;23.75;100.00;100708.75;2065284;28;20179;-65
2022/08/14 01:11:14;;;;;;;9.80;8.80;;;;;;;23.78;100.00;100716.16;2064041;28;20644;-65
2022/08/14 01:12:16;;;;;;;8.77;7.77;;;;;;;23.82;100.00;100711.00;2057392;28;20566;-65
2022/08/14 01:13:20;;;;;;;9.30;7.83;;;;;;;23.82;100.00;100719.50;2057295;28;20186;-66
2022/08/14 01:14:21;;;;;;;10.00;7.77;;;;;;;23.55;100.00;100672.31;2064693;28;20193;-65
2022/08/14 01:15:22;;;;;;;8.47;7.33;;;;;;;23.85;100.00;100710.72;2057949;28;20229;-65
2022/08/14 01:16:23;;;;;;;9.13;7.50;;;;;;;23.42;100.00;100644.59;2061522;28;20186;-65
2022/08/14 01:21:02;;;;;;;8.00;7.23;;;;;;;23.29;100.00;100629.47;2065140;28;20364;-65
2022/08/14 01:21:39;;;;;;;8.53;7.10;;;;;;;23.80;100.00;100705.13;2056701;28;20570;-65
2022/08/14 01:22:39;;;;;;;9.27;7.63;;;;;;;23.89;100.00;100702.03;2057097;28;20186;-65
2022/08/14 01:23:45;;;;;;;8.73;7.47;;;;;;;23.94;100.00;100701.19;2064945;28;20183;-65
2022/08/14 01:24:47;;;;;;;10.30;7.87;;;;;;;23.97;100.00;100717.16;2057322;28;20164;-64
2022/08/14 01:25:49;;;;;;;8.17;7.37;;;;;;;23.97;100.00;100703.78;2056163;28;20194;-65
2022/08/14 01:26:51;;;;;;;10.90;7.53;;;;;;;23.92;100.00;100707.41;2063465;28;20190;-64
2022/08/14 01:27:54;;;;;;;11.33;7.90;;;;;;;23.96;100.00;100699.38;2060616;28;20218;-65
2022/08/14 01:28:58;;;;;;;11.40;7.90;;;;;;;23.99;100.00;100708.88;2064849;28;20244;-65
2022/08/14 01:29:58;;;;;;;9.23;7.20;;;;;;;23.97;100.00;100708.66;2056253;28;20207;-65
2022/08/14 01:30:59;;;;;;;10.47;7.87;;;;;;;23.96;100.00;100704.28;2053634;28;20468;-65
2022/08/14 01:32:02;;;;;;;8.13;7.13;;;;;;;23.95;100.00;100702.75;2056383;28;20187;-65
2022/08/14 01:33:04;;;;;;;8.67;7.77;;;;;;;23.41;100.00;100630.94;2056809;28;20178;-65
2022/08/14 01:34:06;;;;;;;9.87;7.87;;;;;;;23.78;100.00;100690.69;2059346;28;20186;-65
2022/08/14 01:35:07;;;;;;;8.30;7.47;;;;;;;23.45;100.00;100640.72;2056728;28;20194;-65
2022/08/14 01:36:08;;;;;;;8.57;7.70;;;;;;;23.73;100.00;100697.16;2060031;28;20217;-65
2022/08/14 01:37:09;;;;;;;9.10;8.07;;;;;;;23.71;100.00;100696.91;2058946;28;20199;-65
2022/08/14 01:38:13;;;;;;;8.57;7.57;;;;;;;23.37;100.00;100650.25;2070352;28;20258;-65
2022/08/14 01:39:16;;;;;;;9.23;8.03;;;;;;;23.55;100.00;100678.72;2068342;28;20553;-65
2022/08/14 01:40:22;;;;;;;8.87;7.97;;;;;;;23.67;100.00;100690.75;2065203;28;20249;-65
2022/08/14 01:41:25;;;;;;;8.70;7.73;;;;;;;23.67;100.00;100696.41;2064967;28;20633;-65
2022/08/14 01:42:27;;;;;;;10.20;8.40;;;;;;;23.64;100.00;100689.00;2058219;28;20194;-65
2022/08/14 01:43:32;;;;;;;9.33;7.83;;;;;;;23.25;100.00;100629.75;2063841;28;20226;-65
2022/08/14 01:44:32;;;;;;;9.63;8.73;;;;;;;23.65;100.00;100696.94;2063716;28;20183;-65
2022/08/14 01:45:34;;;;;;;8.60;7.70;;;;;;;23.58;100.00;100705.97;2055834;28;20222;-65
2022/08/14 01:46:36;;;;;;;8.77;7.97;;;;;;;23.57;100.00;100683.84;2068848;28;20224;-64
2022/08/14 01:47:37;;;;;;;8.77;7.77;;;;;;;23.62;100.00;100686.66;2069390;28;20607;-65
2022/08/14 01:48:40;;;;;;;10.17;8.53;;;;;;;22.91;100.00;100588.69;2064644;28;20193;-65
2022/08/14 01:49:41;;;;;;;10.10;8.40;;;;;;;23.54;100.00;100693.41;2064929;28;20174;-66
2022/08/14 01:50:42;;;;;;;8.57;7.80;;;;;;;23.56;100.00;100693.63;2064721;28;20202;-65
2022/08/14 01:51:43;;;;;;;8.87;7.93;;;;;;;23.08;100.00;100617.66;2056337;28;20211;-65
2022/08/14 01:52:43;;;;;;;8.70;7.80;;;;;;;23.58;100.00;100688.22;2055999;28;20207;-65
2022/08/14 01:53:46;;;;;;;9.47;8.47;;;;;;;23.58;100.00;100685.38;2064741;28;20190;-65
2022/08/14 01:54:48;;;;;;;9.87;7.37;;;;;;;23.59;100.00;100684.13;2070505;28;20699;-65
2022/08/14 01:55:50;;;;;;;8.57;7.70;;;;;;;23.50;100.00;100675.91;2067284;28;20664;-65
2022/08/14 01:56:54;;;;;;;8.60;7.70;;;;;;;22.91;100.00;100590.75;2064834;28;20563;-65
2022/08/14 01:57:54;;;;;;;9.57;7.60;;;;;;;23.44;100.00;100667.44;2067931;28;20190;-65
2022/08/14 01:58:55;;;;;;;8.50;7.70;;;;;;;23.06;100.00;100608.94;2070986;28;20201;-65
2022/08/14 01:59:55;;;;;;;9.27;8.10;;;;;;;23.65;100.00;100701.84;2065540;28;20234;-65
2022/08/14 02:00:57;;;;;;;10.27;8.23;;;;;;;23.65;100.00;100701.84;2073092;28;20185;-65
2022/08/14 02:02:02;;;;;;;8.70;7.80;;;;;;;23.24;100.00;100633.84;2064853;28;20277;-65
2022/08/14 02:03:03;;;;;;;8.83;8.00;;;;;;;23.69;100.00;100700.25;2063566;28;20622;-64
2022/08/14 02:04:04;;;;;;;10.17;8.40;;;;;;;23.54;100.00;100685.66;2067087;28;20224;-65
2022/08/14 02:05:05;;;;;;;8.47;7.60;;;;;;;23.64;100.00;100694.66;2066760;28;20674;-64
2022/08/14 02:06:07;;;;;;;9.83;8.20;;;;;;;23.71;100.00;100699.75;2064258;28;20201;-65
2022/08/14 02:07:08;;;;;;;10.93;8.37;;;;;;;23.41;100.00;100665.66;2068078;28;20189;-65
2022/08/14 02:08:09;;;;;;;9.00;7.97;;;;;;;23.18;100.00;100638.00;2070285;28;20188;-65
2022/08/14 02:09:09;;;;;;;10.67;7.57;;;;;;;23.55;100.00;100700.59;2064653;28;20678;-65
2022/08/14 02:10:12;;;;;;;10.20;7.90;;;;;;;23.62;100.00;100708.53;2064335;28;20601;-65
2022/08/14 02:11:17;;;;;;;10.07;8.37;;;;;;;23.50;100.00;100699.31;2064907;28;20186;-65
2022/08/14 02:12:18;;;;;;;9.17;8.27;;;;;;;23.50;100.00;100710.63;2065002;28;20197;-65
2022/08/14 02:13:19;;;;;;;9.83;8.07;;;;;;;23.50;100.00;100713.44;2062663;28;20186;-65
2022/08/14 02:14:19;;;;;;;9.10;8.30;;;;;;;23.29;100.00;100688.84;2055528;28;20760;-65
2022/08/14 02:15:20;;;;;;;8.77;7.67;;;;;;;23.45;100.00;100705.78;2063569;28;20278;-65
2022/08/14 02:16:26;;;;;;;8.93;8.03;;;;;;;23.36;100.00;100702.44;2064049;28;20194;-65
2022/08/14 02:17:28;;;;;;;9.00;7.90;;;;;;;23.38;100.00;100714.03;2064598;28;20182;-64
2022/08/14 02:18:29;;;;;;;9.13;8.23;;;;;;;23.39;100.00;100705.00;2067010;28;20185;-66
2022/08/14 02:19:30;;;;;;;8.83;7.70;;;;;;;23.40;100.00;100709.38;2071410;28;20177;-65
2022/08/14 02:20:32;;;;;;;9.20;8.30;;;;;;;23.05;100.00;100652.66;2064750;28;20652;-65
2022/08/14 02:21:35;;;;;;;8.97;8.07;;;;;;;23.46;100.00;100709.34;2073076;28;20174;-65
2022/08/14 02:22:37;;;;;;;10.53;8.13;;;;;;;22.94;100.00;100643.41;2056131;28;20468;-65
2022/08/14 02:23:38;;;;;;;11.30;7.87;;;;;;;23.50;100.00;100719.09;2062462;28;20190;-65
2022/08/14 02:24:39;;;;;;;10.60;8.20;;;;;;;23.02;100.00;100627.47;2064161;28;20178;-65
2022/08/14 02:25:39;;;;;;;10.90;7.83;;;;;;;23.56;100.00;100713.44;2068656;28;20280;-65
2022/08/14 02:26:42;;;;;;;8.43;7.57;;;;;;;23.58;100.00;100713.69;2072351;28;20189;-65
2022/08/14 02:27:44;;;;;;;11.53;7.63;;;;;;;23.27;100.00;100655.44;2072629;28;20248;-65
2022/08/14 02:28:46;;;;;;;10.10;8.43;;;;;;;23.59;100.00;100706.75;2069961;28;20177;-65
2022/08/14 02:29:47;;;;;;;9.53;8.03;;;;;;;23.59;100.00;100713.16;2073780;28;20663;-65
2022/08/14 02:30:47;;;;;;;8.93;8.03;;;;;;;23.43;100.00;100687.78;2081102;28;20560;-65
2022/08/14 02:31:54;;;;;;;8.77;7.97;;;;;;;23.40;100.00;100683.94;2064838;28;20174;-65
2022/08/14 02:32:54;;;;;;;8.90;8.00;;;;;;;23.59;100.00;100720.91;2071986;28;20563;-66
2022/08/14 02:33:55;;;;;;;9.17;8.27;;;;;;;23.60;100.00;100725.25;2063815;28;20200;-65
2022/08/14 02:34:55;;;;;;;8.27;7.50;;;;;;;23.57;100.00;100714.97;2062786;28;20230;-65
2022/08/14 02:35:56;;;;;;;9.07;7.40;;;;;;;23.56;100.00;100725.53;2072042;28;20189;-65
2022/08/14 02:37:01;;;;;;;8.77;7.70;;;;;;;23.57;100.00;100726.28;2069624;28;20201;-65
2022/08/14 02:38:02;;;;;;;8.50;7.70;;;;;;;23.57;100.00;100738.38;2056692;28;20282;-65
2022/08/14 02:39:06;;;;;;;8.43;7.53;;;;;;;23.56;100.00;100734.03;2056561;28;20175;-65
2022/08/14 02:40:08;;;;;;;8.77;7.50;;;;;;;23.49;100.00;100728.88;2050834;28;20187;-65
2022/08/14 02:41:11;;;;;;;10.53;7.57;;;;;;;23.60;100.00;100737.31;2056130;28;20211;-65
2022/08/14 02:42:17;;;;;;;8.20;7.43;;;;;;;23.56;100.00;100731.19;2056154;28;20338;-66
2022/08/14 02:43:18;;;;;;;9.97;7.67;;;;;;;23.24;100.00;100684.72;2048633;28;20749;-64
2022/08/14 02:44:21;;;;;;;8.87;7.67;;;;;;;23.18;100.00;100683.97;2069987;28;20561;-65
2022/08/14 02:45:22;;;;;;;8.57;7.70;;;;;;;23.59;100.00;100738.63;2059392;28;20689;-65
2022/08/14 02:46:23;;;;;;;9.17;8.20;;;;;;;23.61;100.00;100732.44;2055991;28;20653;-65
2022/08/14 02:47:25;;;;;;;9.10;8.20;;;;;;;23.60;100.00;100733.75;2056494;28;20226;-65
2022/08/14 02:48:35;;;;;;;8.33;7.60;;;;;;;23.58;100.00;100728.59;2047852;28;20179;-65
2022/08/14 02:49:36;;;;;;;8.77;7.87;;;;;;;23.62;100.00;100729.09;2041056;28;20267;-65
2022/08/14 02:50:40;;;;;;;9.33;7.37;;;;;;;23.18;100.00;100669.84;2049916;28;20197;-66
2022/08/14 02:51:41;;;;;;;8.57;7.77;;;;;;;23.66;100.00;100726.78;2056444;28;20175;-65
2022/08/14 02:52:42;;;;;;;8.73;7.83;;;;;;;23.00;100.00;100628.00;2064217;28;20189;-65
2022/08/14 02:53:44;;;;;;;9.93;7.60;;;;;;;23.65;100.00;100735.78;2064541;28;20178;-65
2022/08/14 02:54:45;;;;;;;8.23;7.53;;;;;;;23.48;100.00;100701.09;2047999;28;20251;-65
2022/08/14 02:55:46;;;;;;;9.23;8.17;;;;;;;23.71;100.00;100730.88;2046323;28;20191;-65
2022/08/14 02:56:46;;;;;;;9.17;8.37;;;;;;;23.71;100.00;100740.13;2056280;28;20297;-65
2022/08/14 02:57:53;;;;;;;8.63;7.77;;;;;;;23.66;100.00;100726.00;2056400;28;20269;-66
2022/08/14 02:58:55;;;;;;;8.87;7.97;;;;;;;23.71;100.00;100733.69;2060512;28;20196;-66
2022/08/14 02:59:57;;;;;;;9.50;8.23;;;;;;;23.70;100.00;100738.56;2061148;28;20661;-65
2022/08/14 03:00:59;;;;;;;11.17;8.73;;;;;;;23.63;100.00;100733.47;2058672;28;20595;-65
2022/08/14 03:02:00;;;;;;;9.93;8.40;;;;;;;23.56;100.00;100731.19;2062990;28;20174;-66
2022/08/14 03:03:01;;;;;;;9.90;8.90;;;;;;;23.66;100.00;100742.97;2056302;28;20206;-66
2022/08/14 03:04:04;;;;;;;10.10;9.10;;;;;;;23.32;100.00;100707.59;2064309;28;20178;-65
2022/08/14 03:05:05;;;;;;;10.90;9.67;;;;;;;23.67;100.00;100750.16;2063840;28;20182;-65
2022/08/14 03:06:07;;;;;;;11.07;9.17;;;;;;;23.56;100.00;100741.72;2063204;28;20190;-65
2022/08/14 03:07:11;;;;;;;13.10;9.20;;;;;;;23.65;100.00;100752.75;2058493;28;20189;-64
2022/08/14 03:08:13;;;;;;;12.13;8.80;;;;;;;23.56;100.00;100736.06;2056349;28;20205;-64
2022/08/14 03:09:14;;;;;;;9.40;8.53;;;;;;;23.61;100.00;100749.41;2056362;28;20278;-65
2022/08/14 03:10:14;;;;;;;10.83;8.77;;;;;;;23.58;100.00;100754.06;2059422;28;20706;-65
2022/08/14 03:11:15;;;;;;;10.60;9.60;;;;;;;23.36;100.00;100717.34;2064379;28;20177;-65
2022/08/14 03:12:15;;;;;;;9.93;8.93;;;;;;;23.00;100.00;100658.28;2063471;28;20174;-64
2022/08/14 03:13:18;;;;;;;9.57;8.57;;;;;;;23.10;100.00;100673.69;2056577;28;20175;-64
2022/08/14 03:14:20;;;;;;;10.33;9.33;;;;;;;23.44;100.00;100745.88;2057553;28;20688;-64
2022/08/14 03:15:21;;;;;;;13.13;9.83;;;;;;;23.30;100.00;100744.88;2064989;28;20686;-64
2022/08/14 03:16:23;;;;;;;11.20;9.67;;;;;;;23.12;100.00;100739.72;2064844;28;20638;-65
2022/08/14 03:17:25;;;;;;;13.57;9.90;;;;;;;23.15;100.00;100732.28;2065852;28;20285;-64
2022/08/14 03:18:26;;;;;;;10.30;9.30;;;;;;;23.22;100.00;100741.03;2065977;28;20679;-65
2022/08/14 03:19:27;;;;;;;11.17;8.90;;;;;;;23.25;100.00;100740.00;2065992;28;20670;-65
2022/08/14 03:20:28;;;;;;;12.83;9.57;;;;;;;23.27;100.00;100733.81;2063458;28;20566;-65
2022/08/14 03:21:30;;;;;;;10.80;9.80;;;;;;;23.29;100.00;100739.75;2059238;28;20179;-64
2022/08/14 03:22:32;;;;;;;10.13;8.80;;;;;;;23.26;100.00;100735.09;2065716;28;20171;-66
2022/08/14 03:23:34;;;;;;;10.90;8.53;;;;;;;22.90;100.00;100686.06;2065940;28;20175;-65
2022/08/14 03:24:37;;;;;;;12.13;9.80;;;;;;;23.19;100.00;100738.47;2065863;28;20668;-64
2022/08/14 03:25:38;;;;;;;11.10;9.63;;;;;;;22.98;100.00;100717.41;2056514;28;20194;-64
2022/08/14 03:26:45;;;;;;;11.57;9.60;;;;;;;23.10;100.00;100735.88;2062427;28;20242;-65
2022/08/14 03:27:45;;;;;;;10.50;9.17;;;;;;;23.05;100.00;100743.09;2062591;28;20218;-64
2022/08/14 03:28:49;;;;;;;10.83;9.70;;;;;;;23.06;100.00;100738.97;2061357;28;20202;-65
2022/08/14 03:29:51;;;;;;;10.57;9.47;;;;;;;23.03;100.00;100744.88;2057580;28;20587;-65
2022/08/14 03:30:51;;;;;;;10.47;9.37;;;;;;;23.02;100.00;100744.09;2057800;28;20932;-64
2022/08/14 03:31:52;;;;;;;10.73;9.63;;;;;;;22.96;100.00;100734.88;2050955;28;20415;-64
2022/08/14 03:32:53;;;;;;;11.30;10.20;;;;;;;23.01;100.00;100741.78;2056409;28;20171;-64
2022/08/14 03:33:54;;;;;;;11.30;9.80;;;;;;;22.94;100.00;100740.28;2050684;28;20753;-64
2022/08/14 03:34:55;;;;;;;10.87;9.70;;;;;;;23.00;100.00;100751.56;2048626;28;20230;-64
2022/08/14 03:35:55;;;;;;;13.13;10.37;;;;;;;22.99;100.00;100750.03;2052099;28;20195;-65
2022/08/14 03:36:57;;;;;;;11.37;10.27;;;;;;;22.99;100.00;100750.81;2060138;28;20265;-65
2022/08/14 03:38:09;;;;;;;11.30;10.10;;;;;;;22.99;100.00;100747.19;2066106;28;20604;-65
2022/08/14 03:39:11;;;;;;;10.83;9.73;;;;;;;22.99;100.00;100752.84;2068879;28;20218;-65
2022/08/14 03:40:12;;;;;;;12.23;10.93;;;;;;;22.96;100.00;100749.00;2065416;28;20272;-64
2022/08/14 03:41:15;;;;;;;11.57;10.27;;;;;;;22.96;100.00;100749.00;2062719;28;20222;-65
2022/08/14 03:42:16;;;;;;;11.23;10.13;;;;;;;22.95;100.00;100750.28;2057797;28;20190;-65
2022/08/14 03:43:16;;;;;;;11.20;9.97;;;;;;;22.54;100.00;100700.44;2058458;28;20509;-65
2022/08/14 03:44:17;;;;;;;14.17;10.40;;;;;;;22.92;100.00;100747.72;2065597;28;20261;-64
2022/08/14 03:45:18;;;;;;;11.20;10.10;;;;;;;22.89;100.00;100746.69;2048770;29;20172;-64
2022/08/14 03:46:20;;;;;;;11.73;10.53;;;;;;;22.87;100.00;100754.16;2055884;28;20473;-65
2022/08/14 03:47:21;;;;;;;12.07;10.87;;;;;;;22.09;100.00;100636.72;2065895;28;20201;-65
2022/08/14 03:48:21;;;;;;;13.33;10.60;;;;;;;22.85;100.00;100751.84;2060071;28;20454;-64
2022/08/14 03:49:23;;;;;;;12.47;11.10;;;;;;;22.86;100.00;100746.94;2057643;28;20293;-64
2022/08/14 03:50:23;;;;;;;12.93;10.40;;;;;;;22.83;100.00;100754.38;2057744;28;20190;-65
2022/08/14 03:51:27;;;;;;;14.50;10.87;;;;;;;22.88;100.00;100759.25;2057473;28;20422;-64
2022/08/14 03:52:28;;;;;;;11.73;10.63;;;;;;;22.90;100.00;100753.09;2062114;28;20193;-64
2022/08/14 03:53:28;;;;;;;11.50;10.40;;;;;;;22.57;100.00;100703.00;2057602;28;20497;-64
2022/08/14 03:54:29;;;;;;;11.23;10.23;;;;;;;22.89;100.00;100755.19;2057910;28;20206;-65
2022/08/14 03:55:30;;;;;;;11.63;10.23;;;;;;;22.57;100.00;100716.38;2057175;28;20669;-64
2022/08/14 03:56:31;;;;;;;11.50;10.40;;;;;;;22.64;100.00;100730.00;2057189;28;20837;-64
2022/08/14 03:57:34;;;;;;;12.23;10.93;;;;;;;22.89;100.00;100757.22;2057669;28;20557;-65
2022/08/14 03:58:41;;;;;;;11.93;10.63;;;;;;;22.50;100.00;100700.72;2061509;28;20463;-65
2022/08/14 03:59:42;;;;;;;12.47;11.27;;;;;;;22.93;100.00;100754.91;2061625;28;20176;-64
2022/08/14 04:00:44;;;;;;;12.33;11.03;;;;;;;22.91;100.00;100751.81;2052041;28;20477;-64
2022/08/14 04:01:48;;;;;;;12.30;11.03;;;;;;;22.72;100.00;100739.50;2056965;28;20179;-64
2022/08/14 04:02:49;;;;;;;12.93;11.63;;;;;;;22.93;100.00;100747.19;2059049;28;20450;-64
2022/08/14 04:03:52;;;;;;;12.93;11.50;;;;;;;22.95;100.00;100750.28;2065176;28;20441;-65
2022/08/14 04:04:52;;;;;;;12.00;10.87;;;;;;;22.94;100.00;100743.09;2065418;28;20672;-64
2022/08/14 04:05:53;;;;;;;12.90;11.60;;;;;;;22.95;100.00;100747.47;2057264;28;20830;-64
2022/08/14 04:06:53;;;;;;;13.70;12.30;;;;;;;22.89;100.00;100732.56;2057592;28;20190;-65
2022/08/14 04:07:54;;;;;;;16.80;12.70;;;;;;;22.94;100.00;100739.50;2057495;28;20235;-64
2022/08/14 04:08:54;;;;;;;15.00;13.53;;;;;;;22.93;100.00;100730.22;2061627;28;20186;-65
2022/08/14 04:09:55;;;;;;;16.00;12.87;;;;;;;22.83;100.00;100728.94;2068816;28;20205;-64
2022/08/14 04:10:58;;;;;;;16.43;12.97;;;;;;;22.50;100.00;100664.00;2069012;28;20174;-65
2022/08/14 04:11:59;;;;;;;16.13;13.83;;;;;;;22.93;100.00;100737.97;2059182;28;20207;-65
2022/08/14 04:13:01;;;;;;;14.47;12.97;;;;;;;22.92;100.00;100739.25;2065042;28;20174;-64
2022/08/14 04:14:04;;;;;;;14.40;12.77;;;;;;;22.44;100.00;100665.25;2049187;28;20263;-65
2022/08/14 04:15:05;;;;;;;16.03;13.27;;;;;;;22.86;100.00;100730.75;2056417;28;20210;-65
2022/08/14 04:16:09;;;;;;;13.10;11.80;;;;;;;22.76;100.00;100737.16;2061026;28;20186;-64
2022/08/14 04:17:10;;;;;;;13.20;11.80;;;;;;;22.34;100.00;100697.84;2059203;28;20262;-64
2022/08/14 04:18:11;;;;;;;13.33;12.13;;;;;;;22.09;100.00;100688.31;2057606;28;20797;-64
2022/08/14 04:19:17;;;;;;;12.53;11.23;;;;;;;22.39;100.00;100736.59;2061659;28;20198;-64
2022/08/14 04:20:18;;;;;;;12.53;11.33;;;;;;;22.08;100.00;100720.63;2061337;28;20282;-65
2022/08/14 04:21:23;;;;;;;13.53;12.23;;;;;;;22.26;100.00;100736.34;2057473;28;20183;-64
2022/08/14 04:22:24;;;;;;;12.40;11.30;;;;;;;22.22;100.00;100730.91;2057451;28;20179;-65
2022/08/14 04:23:25;;;;;;;13.07;11.60;;;;;;;22.14;100.00;100729.09;2048088;28;20191;-64
2022/08/14 04:24:25;;;;;;;13.47;12.20;;;;;;;22.21;100.00;100734.28;2048957;28;20566;-64
2022/08/14 04:25:26;;;;;;;14.63;13.10;;;;;;;21.99;100.00;100700.31;2064619;28;20489;-64
2022/08/14 04:26:29;;;;;;;14.30;12.80;;;;;;;21.86;100.00;100671.81;2057469;28;20206;-64
2022/08/14 04:27:29;;;;;;;13.40;12.23;;;;;;;21.70;100.00;100659.19;2048966;29;20200;-64
2022/08/14 04:28:31;;;;;;;12.53;11.37;;;;;;;22.19;100.00;100731.94;2053102;28;20452;-64
2022/08/14 04:29:31;;;;;;;13.33;11.73;;;;;;;22.24;100.00;100734.00;2061217;28;20183;-64
2022/08/14 04:30:37;;;;;;;13.00;11.60;;;;;;;22.36;100.00;100746.88;2056850;28;20202;-65
2022/08/14 04:31:38;;;;;;;13.53;12.13;;;;;;;22.35;100.00;100747.38;2057364;28;20210;-65
2022/08/14 04:32:38;;;;;;;13.13;11.83;;;;;;;22.37;100.00;100744.81;2057316;28;20234;-65
2022/08/14 04:33:39;;;;;;;13.90;12.40;;;;;;;22.39;100.00;100745.06;2057316;28;20234;-65
2022/08/14 04:34:40;;;;;;;12.90;11.63;;;;;;;22.42;100.00;100746.88;2056189;28;20191;-66
2022/08/14 04:35:41;;;;;;;12.43;11.20;;;;;;;22.40;100.00;100730.44;2056055;28;20205;-64
2022/08/14 04:43:35;;;;;;;11.70;10.50;;;;;;;22.49;100.00;100741.53;2059640;28;20195;-64
2022/08/14 04:44:35;;;;;;;12.40;10.90;;;;;;;22.11;100.00;100682.16;2057061;28;20179;-64
2022/08/14 04:45:39;;;;;;;12.00;10.80;;;;;;;22.60;100.00;100747.19;2061028;28;20485;-66
2022/08/14 04:48:11;;;;;;;11.87;10.77;;;;;;;22.20;100.00;100691.16;2061135;28;20190;-65
2022/08/14 04:48:13;;;;;;;11.13;10.03;;;;;;;22.63;100.00;100753.88;2057094;28;20214;-64
2022/08/14 04:49:13;;;;;;;13.33;10.97;;;;;;;22.49;100.00;100735.09;2057376;28;20211;-65
2022/08/14 04:50:14;;;;;;;10.37;9.37;;;;;;;22.71;100.00;100749.25;2061998;28;20194;-65
2022/08/14 04:51:17;;;;;;;9.83;8.93;;;;;;;22.65;100.00;100740.00;2060994;28;20191;-65
2022/08/14 04:52:18;;;;;;;10.60;9.60;;;;;;;22.68;100.00;100753.09;2061827;28;20572;-65